createdAt,value
2022-12-09T00:00:06.543Z,2.30
2022-12-09T00:02:33.922Z,2.50
2022-12-09T00:05:01.205Z,2.40
2022-12-09T00:07:28.114Z,2.40
2022-12-09T00:09:54.907Z,2.60
2022-12-09T00:12:21.927Z,2.50
2022-12-09T00:14:48.798Z,2.60
2022-12-09T00:17:15.697Z,2.30
2022-12-09T00:19:42.501Z,2.10
2022-12-09T00:22:09.224Z,2.30
2022-12-09T00:24:36.170Z,2.30
2022-12-09T00:27:02.976Z,2.10
2022-12-09T00:29:29.716Z,2.10
2022-12-09T00:31:56.779Z,2.10
2022-12-09T00:34:23.642Z,2.20
2022-12-09T00:36:50.640Z,2.20
2022-12-09T00:39:17.443Z,2.40
2022-12-09T00:41:44.213Z,2.60
2022-12-09T00:44:12.353Z,2.60
2022-12-09T00:46:39.287Z,2.40
2022-12-09T00:49:06.453Z,2.50
2022-12-09T00:51:33.550Z,2.50
2022-12-09T00:54:00.690Z,2.40
2022-12-09T00:56:29.384Z,2.20
2022-12-09T00:58:58.105Z,2.10
2022-12-09T01:01:26.659Z,2.20
2022-12-09T01:03:53.800Z,2.30
2022-12-09T01:06:24.451Z,2.30
2022-12-09T01:08:52.088Z,2.30
2022-12-09T01:11:23.415Z,2.20
2022-12-09T01:13:50.926Z,1.80
2022-12-09T01:16:25.051Z,1.70
2022-12-09T01:18:54.059Z,1.90
2022-12-09T01:21:21.284Z,1.80
2022-12-09T01:23:48.076Z,1.70
2022-12-09T01:26:14.915Z,1.60
2022-12-09T01:28:42.024Z,1.70
2022-12-09T01:31:18.685Z,1.70
2022-12-09T01:33:46.355Z,1.40
2022-12-09T01:36:16.891Z,1.10
2022-12-09T01:38:44.331Z,1.20
2022-12-09T01:41:11.107Z,1.40
2022-12-09T01:43:39.481Z,1.40
2022-12-09T01:46:06.443Z,1.20
2022-12-09T01:48:37.908Z,1.10
2022-12-09T01:51:13.093Z,0.90
2022-12-09T01:53:46.513Z,0.80
2022-12-09T01:56:28.800Z,0.70
2022-12-09T01:59:00.600Z,0.60
2022-12-09T02:01:27.501Z,0.60
2022-12-09T02:03:54.819Z,0.40
2022-12-09T02:06:22.187Z,0.30
2022-12-09T02:08:50.779Z,0.30
2022-12-09T02:11:23.678Z,0.30
2022-12-09T02:13:58.462Z,0.60
2022-12-09T02:16:27.128Z,0.70
2022-12-09T02:19:26.744Z,0.80
2022-12-09T02:22:00.077Z,0.90
2022-12-09T02:24:46.158Z,0.70
2022-12-09T02:27:23.436Z,0.50
2022-12-09T02:30:01.950Z,0.60
2022-12-09T02:32:40.590Z,0.80
2022-12-09T02:35:13.061Z,0.60
2022-12-09T02:38:00.784Z,0.70
2022-12-09T02:40:35.854Z,0.70
2022-12-09T02:43:06.586Z,0.50
2022-12-09T02:45:35.268Z,0.80
2022-12-09T02:48:04.387Z,0.90
2022-12-09T02:50:34.947Z,0.80
2022-12-09T02:53:05.522Z,0.80
2022-12-09T02:55:34.851Z,0.80
2022-12-09T02:58:02.458Z,0.60
2022-12-09T03:00:29.608Z,0.70
2022-12-09T03:03:03.044Z,0.40
2022-12-09T03:05:45.626Z,0.20
2022-12-09T03:08:35.586Z,0.00
2022-12-09T03:11:05.068Z,-0.20
2022-12-09T03:14:10.459Z,-0.20
2022-12-09T03:16:52.535Z,-0.40
2022-12-09T03:19:50.373Z,-0.40
2022-12-09T03:22:20.932Z,-0.50
2022-12-09T03:24:59.963Z,-0.50
2022-12-09T03:27:31.576Z,-0.50
2022-12-09T03:30:00.084Z,-0.30
2022-12-09T03:32:28.952Z,0.30
2022-12-09T03:35:03.391Z,0.00
2022-12-09T03:37:32.228Z,-0.30
2022-12-09T03:40:00.127Z,-0.30
2022-12-09T03:42:34.168Z,-0.40
2022-12-09T03:45:05.653Z,-0.50
2022-12-09T03:47:32.742Z,-0.50
2022-12-09T03:49:59.903Z,-0.60
2022-12-09T03:52:40.904Z,-0.70
2022-12-09T03:55:43.869Z,-0.70
2022-12-09T03:58:13.766Z,-0.80
2022-12-09T04:00:40.922Z,-0.80
2022-12-09T04:03:08.828Z,-0.80
2022-12-09T04:05:35.886Z,-0.80
2022-12-09T04:08:03.125Z,-0.60
2022-12-09T04:10:30.109Z,-0.30
2022-12-09T04:12:57.183Z,-0.20
2022-12-09T04:15:24.259Z,0.20
2022-12-09T04:17:51.373Z,0.40
2022-12-09T04:20:18.180Z,0.20
2022-12-09T04:22:45.087Z,0.20
2022-12-09T04:25:12.288Z,0.30
2022-12-09T04:27:39.069Z,0.10
2022-12-09T04:30:07.291Z,-0.20
2022-12-09T04:32:34.661Z,-0.30
2022-12-09T04:35:01.671Z,-0.10
2022-12-09T04:37:28.801Z,0.20
2022-12-09T04:39:55.561Z,0.40
2022-12-09T04:42:22.703Z,0.30
2022-12-09T04:44:49.667Z,0.40
2022-12-09T04:47:16.986Z,0.60
2022-12-09T04:49:44.112Z,0.70
2022-12-09T04:52:10.863Z,1.00
2022-12-09T04:54:38.090Z,0.70
2022-12-09T04:57:04.934Z,0.40
2022-12-09T04:59:32.425Z,0.60
2022-12-09T05:01:59.437Z,0.90
2022-12-09T05:04:26.541Z,0.90
2022-12-09T05:06:54.189Z,0.70
2022-12-09T05:09:21.279Z,0.50
2022-12-09T05:11:49.078Z,0.50
2022-12-09T05:14:15.971Z,0.50
2022-12-09T05:16:42.918Z,0.50
2022-12-09T05:19:11.246Z,0.60
2022-12-09T05:21:38.462Z,0.70
2022-12-09T05:24:05.748Z,0.90
2022-12-09T05:26:33.350Z,0.70
2022-12-09T05:29:00.269Z,0.50
2022-12-09T05:31:27.550Z,0.30
2022-12-09T05:33:54.773Z,0.50
2022-12-09T05:36:24.624Z,0.30
2022-12-09T05:38:52.634Z,0.20
2022-12-09T05:41:20.325Z,0.40
2022-12-09T05:43:47.285Z,0.10
2022-12-09T05:46:15.796Z,0.10
2022-12-09T05:48:43.630Z,0.30
2022-12-09T05:51:18.837Z,0.30
2022-12-09T05:53:45.830Z,0.50
2022-12-09T05:56:16.202Z,0.90
2022-12-09T05:58:43.243Z,0.80
2022-12-09T06:01:11.461Z,0.40
2022-12-09T06:03:39.796Z,0.10
2022-12-09T06:06:12.949Z,-0.10
2022-12-09T06:08:41.967Z,0.20
2022-12-09T06:11:15.531Z,0.60
2022-12-09T06:13:43.485Z,0.80
2022-12-09T06:16:11.415Z,0.90
2022-12-09T06:18:38.746Z,1.10
2022-12-09T06:21:08.137Z,1.30
2022-12-09T06:23:41.596Z,1.40
2022-12-09T06:26:22.926Z,1.30
2022-12-09T06:28:50.238Z,1.70
2022-12-09T06:31:18.122Z,1.80
2022-12-09T06:33:55.547Z,1.50
2022-12-09T06:36:25.035Z,1.10
2022-12-09T06:38:52.619Z,1.20
2022-12-09T06:41:19.460Z,1.00
2022-12-09T06:43:46.746Z,1.30
2022-12-09T06:46:23.780Z,1.10
2022-12-09T06:48:52.180Z,1.10
2022-12-09T06:51:20.311Z,1.30
2022-12-09T06:53:48.136Z,1.50
2022-12-09T06:56:15.740Z,1.50
2022-12-09T06:58:44.672Z,1.00
2022-12-09T07:01:15.557Z,1.00
2022-12-09T07:03:45.626Z,1.20
2022-12-09T07:06:26.265Z,1.60
2022-12-09T07:08:54.275Z,1.60
2022-12-09T07:11:21.888Z,1.10
2022-12-09T07:13:49.186Z,1.30
2022-12-09T07:16:16.409Z,1.20
2022-12-09T07:18:43.964Z,0.70
2022-12-09T07:21:13.288Z,0.40
2022-12-09T07:23:40.841Z,0.30
2022-12-09T07:26:08.806Z,0.60
2022-12-09T07:28:37.708Z,1.10
2022-12-09T07:31:05.814Z,1.30
2022-12-09T07:33:32.743Z,1.50
2022-12-09T07:36:00.219Z,1.60
2022-12-09T07:38:27.725Z,1.50
2022-12-09T07:40:54.929Z,1.30
2022-12-09T07:43:22.441Z,1.10
2022-12-09T07:45:50.099Z,1.40
2022-12-09T07:48:17.089Z,1.50
2022-12-09T07:50:44.724Z,1.70
2022-12-09T07:53:11.752Z,1.60
2022-12-09T07:55:38.654Z,1.60
2022-12-09T07:58:05.889Z,1.70
2022-12-09T08:00:32.713Z,1.60
2022-12-09T08:03:00.313Z,1.80
2022-12-09T08:05:27.601Z,1.90
2022-12-09T08:07:54.901Z,1.50
2022-12-09T08:10:22.885Z,1.20
2022-12-09T08:12:50.002Z,0.70
2022-12-09T08:15:19.475Z,0.60
2022-12-09T08:17:47.117Z,0.80
2022-12-09T08:20:15.120Z,0.40
2022-12-09T08:22:42.628Z,0.60
2022-12-09T08:25:10.968Z,0.60
2022-12-09T08:27:38.255Z,0.60
2022-12-09T08:30:06.755Z,0.50
2022-12-09T08:32:34.313Z,0.60
2022-12-09T08:35:01.434Z,0.50
2022-12-09T08:37:29.209Z,0.50
2022-12-09T08:39:56.044Z,0.70
2022-12-09T08:42:23.070Z,0.40
2022-12-09T08:44:52.522Z,0.40
2022-12-09T08:47:21.741Z,0.60
2022-12-09T08:49:49.143Z,0.70
2022-12-09T08:52:16.312Z,1.00
2022-12-09T08:54:43.134Z,1.00
2022-12-09T08:57:10.107Z,0.60
2022-12-09T08:59:43.426Z,0.60
2022-12-09T09:02:12.104Z,0.30
2022-12-09T09:04:40.036Z,0.30
2022-12-09T09:07:07.356Z,0.50
2022-12-09T09:09:34.817Z,0.60
2022-12-09T09:12:01.960Z,0.60
2022-12-09T09:14:29.263Z,0.80
2022-12-09T09:16:56.288Z,1.00
2022-12-09T09:19:28.532Z,1.00
2022-12-09T09:21:56.243Z,1.00
2022-12-09T09:24:25.264Z,1.10
2022-12-09T09:26:53.396Z,1.40
2022-12-09T09:29:22.153Z,1.40
2022-12-09T09:31:54.577Z,1.40
2022-12-09T09:34:23.169Z,1.10
2022-12-09T09:36:51.933Z,0.70
2022-12-09T09:39:20.023Z,0.50
2022-12-09T09:41:56.399Z,0.70
2022-12-09T09:44:29.638Z,0.50
2022-12-09T09:46:57.797Z,0.50
2022-12-09T09:49:30.040Z,0.60
2022-12-09T09:51:57.757Z,0.60
2022-12-09T09:54:24.926Z,0.50
2022-12-09T09:56:59.391Z,0.50
2022-12-09T09:59:50.180Z,0.70
2022-12-09T10:02:19.596Z,1.10
2022-12-09T10:05:04.979Z,1.10
2022-12-09T10:07:41.227Z,0.80
2022-12-09T10:10:39.247Z,0.40
2022-12-09T10:13:40.578Z,0.20
2022-12-09T10:16:23.003Z,0.20
2022-12-09T10:19:22.769Z,0.50
2022-12-09T10:21:52.860Z,0.80
2022-12-09T10:24:28.084Z,0.40
2022-12-09T10:27:25.909Z,0.20
2022-12-09T10:30:03.607Z,0.20
2022-12-09T10:32:33.741Z,0.20
2022-12-09T10:35:01.467Z,0.40
2022-12-09T10:37:35.321Z,0.60
2022-12-09T10:40:05.180Z,0.60
2022-12-09T10:42:57.482Z,0.50
2022-12-09T10:45:24.612Z,0.50
2022-12-09T10:47:53.217Z,0.30
2022-12-09T10:50:31.709Z,0.30
2022-12-09T10:53:06.811Z,0.50
2022-12-09T10:55:40.492Z,0.40
2022-12-09T10:58:23.238Z,0.40
2022-12-09T11:01:09.568Z,0.10
2022-12-09T11:03:52.539Z,0.30
2022-12-09T11:06:28.535Z,0.00
2022-12-09T11:08:59.144Z,0.40
2022-12-09T11:11:59.310Z,0.20
2022-12-09T11:14:32.080Z,0.50
2022-12-09T11:17:12.906Z,0.20
2022-12-09T11:19:40.729Z,0.40
2022-12-09T11:22:41.161Z,0.20
2022-12-09T11:25:23.019Z,0.20
2022-12-09T11:27:53.133Z,0.00
2022-12-09T11:30:23.752Z,0.20
2022-12-09T11:33:13.400Z,0.40
2022-12-09T11:35:54.892Z,1.00
2022-12-09T11:38:30.329Z,1.20
2022-12-09T11:41:13.556Z,1.30
2022-12-09T11:43:49.390Z,1.40
2022-12-09T11:46:24.201Z,0.90
2022-12-09T11:48:56.046Z,0.60
2022-12-09T11:51:29.803Z,0.80
2022-12-09T11:54:12.269Z,0.80
2022-12-09T11:56:40.963Z,0.70
2022-12-09T11:59:21.342Z,0.60
2022-12-09T12:02:01.505Z,0.50
2022-12-09T12:04:36.195Z,0.80
2022-12-09T12:07:09.762Z,0.80
2022-12-09T12:09:43.231Z,0.70
2022-12-09T12:12:35.190Z,0.40
2022-12-09T12:15:12.714Z,0.30
2022-12-09T12:17:43.764Z,0.40
2022-12-09T12:20:12.964Z,0.50
2022-12-09T12:22:55.408Z,0.30
2022-12-09T12:25:22.108Z,0.50
2022-12-09T12:28:14.419Z,0.50
2022-12-09T12:31:00.006Z,0.50
2022-12-09T12:36:47.640Z,0.90
2022-12-09T12:39:42.642Z,1.00
2022-12-09T12:42:31.755Z,1.00
2022-12-09T12:45:40.769Z,0.80
2022-12-09T12:48:26.853Z,0.50
2022-12-09T12:51:38.151Z,0.90
2022-12-09T12:54:38.909Z,1.20
2022-12-09T12:57:41.716Z,1.10
2022-12-09T13:00:15.131Z,0.70
2022-12-09T13:02:57.392Z,0.60
2022-12-09T13:05:39.612Z,0.50
2022-12-09T13:08:14.140Z,0.80
2022-12-09T13:10:47.817Z,1.10
2022-12-09T13:13:30.284Z,1.00
2022-12-09T13:16:06.290Z,1.20
2022-12-09T13:18:36.826Z,0.90
2022-12-09T13:21:05.739Z,1.00
2022-12-09T13:23:51.070Z,0.60
2022-12-09T13:26:36.210Z,0.20
2022-12-09T13:29:06.126Z,0.50
2022-12-09T13:31:36.722Z,0.90
2022-12-09T13:34:03.422Z,1.00
2022-12-09T13:36:46.697Z,0.90
2022-12-09T13:39:39.348Z,0.90
2022-12-09T13:42:46.930Z,0.90
2022-12-09T13:45:28.401Z,0.60
2022-12-09T13:47:57.179Z,0.60
2022-12-09T13:50:26.079Z,0.70
2022-12-09T13:52:58.383Z,0.40
2022-12-09T13:56:08.470Z,0.50
2022-12-09T13:59:06.122Z,0.40
2022-12-09T14:01:35.578Z,0.40
2022-12-09T14:04:24.920Z,0.50
2022-12-09T14:06:57.927Z,0.60
2022-12-09T14:09:38.214Z,0.80
2022-12-09T14:12:09.911Z,0.80
2022-12-09T14:14:46.947Z,0.60
2022-12-09T14:17:19.975Z,0.50
2022-12-09T14:20:11.275Z,0.50
2022-12-09T14:22:39.655Z,0.90
2022-12-09T14:25:28.351Z,1.10
2022-12-09T14:28:10.426Z,1.20
2022-12-09T14:30:55.460Z,1.20
2022-12-09T14:33:31.142Z,1.20
2022-12-09T14:36:12.753Z,1.00
2022-12-09T14:39:23.029Z,1.10
2022-12-09T14:41:58.739Z,1.20
2022-12-09T14:44:40.473Z,0.70
2022-12-09T14:47:30.206Z,0.70
2022-12-09T14:50:07.572Z,0.90
2022-12-09T14:52:34.879Z,1.30
2022-12-09T14:55:06.289Z,1.40
2022-12-09T14:57:41.561Z,1.50
2022-12-09T15:00:26.407Z,1.80
2022-12-09T15:03:23.473Z,1.60
2022-12-09T15:05:40.519Z,1.50
2022-12-09T15:08:07.360Z,1.60
2022-12-09T15:10:36.606Z,1.80
2022-12-09T15:13:05.394Z,2.20
2022-12-09T15:15:35.795Z,1.60
2022-12-09T15:18:17.126Z,1.10
2022-12-09T15:20:53.295Z,1.00
2022-12-09T15:23:25.998Z,1.10
2022-12-09T15:25:55.933Z,1.10
2022-12-09T15:28:26.847Z,1.10
2022-12-09T15:31:00.437Z,1.40
2022-12-09T15:33:30.844Z,1.20
2022-12-09T15:36:38.685Z,1.50
2022-12-09T15:39:08.600Z,1.70
2022-12-09T15:42:04.737Z,1.50
2022-12-09T15:44:44.413Z,1.50
2022-12-09T15:47:55.312Z,1.80
2022-12-09T15:50:31.426Z,1.50
2022-12-09T15:53:14.857Z,1.60
2022-12-09T15:55:41.674Z,1.90
2022-12-09T15:58:13.568Z,1.90
2022-12-09T16:00:43.683Z,1.80
2022-12-09T16:03:10.553Z,1.70
2022-12-09T16:05:41.867Z,1.30
2022-12-09T16:08:09.905Z,1.00
2022-12-09T16:10:47.939Z,0.90
2022-12-09T16:13:18.429Z,0.90
2022-12-09T16:15:53.665Z,1.00
2022-12-09T16:18:24.624Z,1.10
2022-12-09T16:21:11.477Z,1.20
2022-12-09T16:23:38.563Z,1.10
2022-12-09T16:26:07.628Z,1.10
2022-12-09T16:28:35.527Z,1.10
2022-12-09T16:31:15.420Z,0.90
2022-12-09T16:33:48.869Z,0.90
2022-12-09T16:36:20.084Z,0.80
2022-12-09T16:39:04.125Z,0.60
2022-12-09T16:41:52.048Z,0.60
2022-12-09T16:44:27.737Z,0.90
2022-12-09T16:47:16.352Z,0.90
2022-12-09T16:49:46.314Z,1.00
2022-12-09T16:52:19.658Z,1.00
2022-12-09T16:54:48.175Z,1.20
2022-12-09T16:57:16.534Z,1.20
2022-12-09T16:59:44.603Z,1.40
2022-12-09T17:02:19.704Z,1.40
2022-12-09T17:04:47.259Z,1.30
2022-12-09T17:07:13.962Z,1.20
2022-12-09T17:09:40.745Z,1.00
2022-12-09T17:12:07.677Z,1.00
2022-12-09T17:14:34.578Z,1.20
2022-12-09T17:17:02.767Z,1.20
2022-12-09T17:19:29.984Z,1.40
2022-12-09T17:21:57.827Z,1.50
2022-12-09T17:24:24.948Z,1.70
2022-12-09T17:26:51.795Z,1.40
2022-12-09T17:29:18.517Z,1.40
2022-12-09T17:31:46.347Z,1.40
2022-12-09T17:34:13.080Z,1.40
2022-12-09T17:36:39.789Z,1.20
2022-12-09T17:39:07.391Z,1.30
2022-12-09T17:41:34.149Z,1.20
2022-12-09T17:44:01.238Z,1.40
2022-12-09T17:46:28.028Z,1.60
2022-12-09T17:48:54.758Z,1.40
2022-12-09T17:51:21.604Z,1.40
2022-12-09T17:53:50.232Z,1.20
2022-12-09T17:56:20.757Z,1.20
2022-12-09T17:58:53.767Z,1.20
2022-12-09T18:01:22.832Z,1.10
2022-12-09T18:04:00.227Z,1.50
2022-12-09T18:06:34.671Z,1.40
2022-12-09T18:09:02.992Z,0.90
2022-12-09T18:11:29.746Z,0.70
2022-12-09T18:13:56.703Z,1.00
2022-12-09T18:16:23.503Z,0.90
2022-12-09T18:18:50.443Z,1.00
2022-12-09T18:21:19.773Z,1.10
2022-12-09T18:23:48.209Z,1.30
2022-12-09T18:26:17.495Z,1.00
2022-12-09T18:28:44.367Z,0.50
2022-12-09T18:31:19.075Z,0.60
2022-12-09T18:33:46.531Z,0.50
2022-12-09T18:36:21.387Z,0.40
2022-12-09T18:38:48.525Z,0.70
2022-12-09T18:41:21.588Z,0.90
2022-12-09T18:43:50.549Z,0.90
2022-12-09T18:46:26.443Z,1.10
2022-12-09T18:49:01.974Z,1.20
2022-12-09T18:51:29.610Z,1.40
2022-12-09T18:54:00.082Z,1.10
2022-12-09T18:56:27.261Z,0.80
2022-12-09T18:59:06.467Z,0.80
2022-12-09T19:01:35.788Z,1.10
2022-12-09T19:04:06.595Z,0.90
2022-12-09T19:06:35.667Z,1.00
2022-12-09T19:09:08.625Z,1.00
2022-12-09T19:11:37.837Z,0.90
2022-12-09T19:14:07.075Z,1.00
2022-12-09T19:16:34.738Z,0.60
2022-12-09T19:19:08.796Z,0.60
2022-12-09T19:21:36.809Z,0.90
2022-12-09T19:24:03.637Z,0.30
2022-12-09T19:26:32.725Z,0.20
2022-12-09T19:29:05.955Z,0.20
2022-12-09T19:31:39.057Z,0.20
2022-12-09T19:34:14.725Z,0.30
2022-12-09T19:36:42.689Z,0.20
2022-12-09T19:39:10.512Z,0.60
2022-12-09T19:41:38.143Z,0.60
2022-12-09T19:44:05.486Z,0.40
2022-12-09T19:46:32.789Z,0.40
2022-12-09T19:48:59.875Z,0.50
2022-12-09T19:51:28.068Z,0.70
2022-12-09T19:53:57.603Z,0.60
2022-12-09T19:56:25.282Z,0.50
2022-12-09T19:58:52.943Z,0.30
2022-12-09T20:01:21.259Z,0.30
2022-12-09T20:03:50.564Z,0.10
2022-12-09T20:06:20.209Z,-0.10
2022-12-09T20:08:47.834Z,-0.10
2022-12-09T20:11:18.959Z,-0.20
2022-12-09T20:13:46.622Z,-0.30
2022-12-09T20:16:16.445Z,-0.30
2022-12-09T20:18:44.034Z,-0.20
2022-12-09T20:21:13.435Z,-0.10
2022-12-09T20:23:42.186Z,-0.20
2022-12-09T20:26:15.178Z,-0.10
2022-12-09T20:28:43.635Z,-0.10
2022-12-09T20:31:16.425Z,-0.10
2022-12-09T20:33:43.555Z,-0.10
2022-12-09T20:36:17.083Z,0.00
2022-12-09T20:38:47.583Z,0.10
2022-12-09T20:41:14.399Z,0.10
2022-12-09T20:43:43.281Z,-0.20
2022-12-09T20:46:12.936Z,0.00
2022-12-09T20:48:40.508Z,-0.20
2022-12-09T20:51:17.469Z,-0.10
2022-12-09T20:53:45.547Z,-0.10
2022-12-09T20:56:13.147Z,-0.20
2022-12-09T20:58:41.171Z,0.10
2022-12-09T21:01:11.376Z,0.10
2022-12-09T21:03:38.817Z,0.00
2022-12-09T21:06:07.415Z,0.20
2022-12-09T21:08:34.310Z,0.30
2022-12-09T21:11:15.002Z,0.30
2022-12-09T21:13:47.670Z,0.00
2022-12-09T21:16:22.325Z,0.00
2022-12-09T21:18:50.364Z,-0.20
2022-12-09T21:21:18.579Z,-0.40
2022-12-09T21:23:45.582Z,-0.10
2022-12-09T21:26:15.274Z,0.00
2022-12-09T21:28:43.052Z,-0.30
2022-12-09T21:31:21.761Z,-0.20
2022-12-09T21:33:50.340Z,-0.10
2022-12-09T21:36:20.033Z,-0.20
2022-12-09T21:38:47.108Z,-0.20
2022-12-09T21:41:17.159Z,-0.20
2022-12-09T21:43:44.933Z,-0.10
2022-12-09T21:46:15.053Z,0.10
2022-12-09T21:48:42.217Z,0.10
2022-12-09T21:51:11.168Z,0.30
2022-12-09T21:53:38.806Z,0.40
2022-12-09T21:56:08.115Z,0.30
2022-12-09T21:58:35.613Z,-0.10
2022-12-09T22:01:10.222Z,0.00
2022-12-09T22:03:37.482Z,0.10
2022-12-09T22:06:05.666Z,0.10
2022-12-09T22:08:32.437Z,0.10
2022-12-09T22:10:59.231Z,-0.20
2022-12-09T22:13:26.916Z,-0.20
2022-12-09T22:15:54.163Z,-0.50
2022-12-09T22:18:20.900Z,-0.50
2022-12-09T22:21:23.532Z,-0.60
2022-12-09T22:23:34.826Z,-0.40
2022-12-09T22:26:08.877Z,-0.10
2022-12-09T22:28:36.841Z,0.10
2022-12-09T22:31:09.608Z,-0.20
2022-12-09T22:33:37.383Z,0.10
2022-12-09T22:36:06.226Z,0.10
2022-12-09T22:38:34.477Z,0.10
2022-12-09T22:41:19.361Z,-0.20
2022-12-09T22:43:46.426Z,0.10
2022-12-09T22:46:21.412Z,-0.10
2022-12-09T22:48:48.558Z,-0.20
2022-12-09T22:51:19.371Z,-0.30
2022-12-09T22:53:48.134Z,-0.10
2022-12-09T22:56:14.992Z,0.10
2022-12-09T22:58:41.787Z,0.40
2022-12-09T23:01:16.901Z,0.50
2022-12-09T23:03:44.141Z,0.00
2022-12-09T23:06:11.678Z,0.10
2022-12-09T23:08:40.112Z,0.10
2022-12-09T23:11:10.715Z,0.00
2022-12-09T23:13:40.883Z,-0.10
2022-12-09T23:16:11.840Z,-0.10
2022-12-09T23:18:38.703Z,-0.30
2022-12-09T23:21:08.514Z,-0.50
2022-12-09T23:23:35.829Z,-0.40
2022-12-09T23:26:05.251Z,-0.10
2022-12-09T23:28:37.014Z,-0.10
2022-12-09T23:31:04.902Z,-0.20
2022-12-09T23:33:33.421Z,-0.20
2022-12-09T23:36:08.025Z,0.10
2022-12-09T23:38:35.509Z,-0.20
2022-12-09T23:41:02.324Z,-0.10
2022-12-09T23:43:36.995Z,-0.20
2022-12-09T23:46:08.896Z,0.20
2022-12-09T23:48:41.780Z,0.20
2022-12-09T23:51:11.560Z,-0.10
2022-12-09T23:53:38.602Z,-0.40
2022-12-09T23:56:06.068Z,-0.40
2022-12-09T23:58:33.250Z,-0.40
